Seaview, Washington
Current Conditions -  °F | °C
As of 12:55 AM on Saturday 22 Nov 2014 (Local Time) from KAST Reporting Station
Clear Clear  
Wind Chill: 50°   Ceiling: Unl
Heat Index: 50°   Visibility: 10mi
Dew Point: 39°   Wind: 10mph
Humidity: 66%   Direction: 270°W
Pressure: 29.65"   Gusts: NA
Location:  46.33°N, 124.05°W
Report Text: KAST 220855Z AUTO 27009KT 10SM CLR 10/04 A2965 RMK AO2 SLP040 60001 T01000039 51030
Loading
Personal Weather Stations






























Interactive Weather Map New forecast layout! Learn more

10-Day Weather Forecast

Advertisements
Track Severe Weather on mobile